CheckWX is a tool to help pilots better visualize weather data.  It is not intended as a substitute for an official pre-flight weather briefing.

01:57:41 UTC

CWSW METAR
Sparwood / Elk Valley Airport
Sparwood/Elk Valley, Canada
Current

58 mins ago

CWSW 200100Z 00000KT 20SM FEW066CB BKN081 BKN140 17/04 A3000 RMK CB1AC4AC2 VIRGA N LAST STFD OBS/NXT 201300Z SLP170 DENSITY ALT 4800FT
Observed
Jul-20 @ 01:00 UTC
Visibility
20 SM
Flight Rules
VFR
Cloud Levels
  • Few at 6,600' AGL
  • Broken at 8,100' AGL
  • Broken at 14,000' AGL
Temperature
17°C / 63°F
Dewpoint
C / 39°F
Humidity
42%
Altimeter
30" Hg
Pressure
1015.92 hPa
Previous

2 hours ago

CWSW 200000Z VRB08G21KT 20SM FEW055CB SCT065 BKN072 16/03 A3000 RMK CB2SC2AC3 SLP174 DENSITY ALT 4800FT
Observed
Jul-20 @ 00:00 UTC
Wind
  • Variable at 8 KTS
  • Gusting to 21 KTS
Visibility
20 SM
Flight Rules
VFR
Cloud Levels
  • Few at 5,500' AGL
  • Scattered at 6,500' AGL
  • Broken at 7,200' AGL
Temperature
16°C / 61°F
Dewpoint
C / 37°F
Humidity
42%
Altimeter
30" Hg
Pressure
1015.92 hPa
Previous

3 hours ago

CWSW 192300Z 05004KT 20SM SCT067 BKN082 BKN110 17/03 A2999 RMK AC4AC2AC1 SLP168 DENSITY ALT 4800FT
Observed
Jul-19 @ 23:00 UTC
Wind
  • 050° at 4 KTS
Visibility
20 SM
Flight Rules
VFR
Cloud Levels
  • Scattered at 6,700' AGL
  • Broken at 8,200' AGL
  • Broken at 11,000' AGL
Temperature
17°C / 63°F
Dewpoint
C / 37°F
Humidity
39%
Altimeter
29.99" Hg
Pressure
1015.62 hPa